Time;durP1;ratioP1;P1;durP2;ratioP2;P2;SDS_P1;SDS_P2;PMS_P1;PMS_P2;Temp;Humidity;BMP_temperature;BMP_pressure;BME280_temperature;BME280_humidity;BME280_pressure;Samples;Min_cycle;Max_cycle;Signal;HPM_P1;HPM_P2
2023/10/18 00:01:07;;;;;;;;;;;9.20;94.00;;;;;;5113145;28;19918;-71
2023/10/18 00:03:33;;;;;;;;;;;9.20;94.00;;;;;;5112710;28;19907;-71
2023/10/18 00:06:00;;;;;;;;;;;9.20;94.00;;;;;;5112872;28;19995;-71
2023/10/18 00:08:26;;;;;;;;;;;9.20;94.00;;;;;;5112733;28;20348;-71
2023/10/18 00:10:53;;;;;;;;;;;9.20;94.00;;;;;;5112882;28;20385;-71
2023/10/18 00:13:22;;;;;;;;;;;9.10;94.00;;;;;;5112741;28;19912;-71
2023/10/18 00:15:52;;;;;;;;;;;9.20;94.00;;;;;;5110035;28;19966;-71
2023/10/18 00:18:21;;;;;;;;;;;9.10;94.00;;;;;;5112456;28;20026;-71
2023/10/18 00:20:47;;;;;;;;;;;9.20;94.00;;;;;;5111855;27;19922;-71
2023/10/18 00:23:13;;;;;;;;;;;9.20;94.00;;;;;;5120793;27;19908;-71
2023/10/18 00:25:38;;;;;;;;;;;9.10;94.00;;;;;;5109848;28;20371;-71
2023/10/18 00:28:04;;;;;;;;;;;9.10;94.00;;;;;;5111102;28;19951;-71
2023/10/18 00:30:30;;;;;;;;;;;9.10;94.00;;;;;;5112182;28;19953;-71
2023/10/18 00:32:55;;;;;;;;;;;9.10;94.00;;;;;;5111016;28;19920;-71
2023/10/18 00:35:23;;;;;;;;;;;9.10;94.00;;;;;;5111696;28;20260;-71
2023/10/18 00:37:49;;;;;;;;;;;9.10;94.00;;;;;;5115159;27;19918;-71
2023/10/18 00:40:33;;;;;;;;;;;9.10;94.00;;;;;;5121071;27;19922;-71
2023/10/18 00:43:06;;;;;;;;;;;9.10;94.00;;;;;;5113931;27;20255;-71
2023/10/18 00:45:36;;;;;;;;;;;9.00;93.90;;;;;;5111331;28;19974;-71
2023/10/18 00:48:05;;;;;;;;;;;9.00;93.90;;;;;;5124393;27;19984;-71
2023/10/18 00:50:31;;;;;;;;;;;9.10;94.00;;;;;;5110248;28;19907;-71
2023/10/18 00:52:57;;;;;;;;;;;9.00;93.90;;;;;;5118817;27;19907;-71
2023/10/18 00:55:22;;;;;;;;;;;9.00;93.90;;;;;;5111600;28;19916;-71
2023/10/18 00:57:48;;;;;;;;;;;9.00;93.90;;;;;;5111499;28;19912;-71
2023/10/18 01:00:19;;;;;;;;;;;9.00;93.90;;;;;;5115683;27;19943;-71
2023/10/18 01:02:48;;;;;;;;;;;9.00;93.90;;;;;;5111187;28;19911;-71
2023/10/18 01:05:15;;;;;;;;;;;9.00;93.90;;;;;;5118104;27;20602;-71
2023/10/18 01:07:42;;;;;;;;;;;9.00;93.90;;;;;;5111484;27;20488;-71
2023/10/18 01:10:09;;;;;;;;;;;9.00;93.90;;;;;;5110834;27;20413;-71
2023/10/18 01:12:35;;;;;;;;;;;9.00;93.90;;;;;;5104233;28;19920;-71
2023/10/18 01:15:01;;;;;;;;;;;9.00;93.90;;;;;;5103255;28;19915;-71
2023/10/18 01:17:27;;;;;;;;;;;9.00;93.90;;;;;;5111153;28;19954;-71
2023/10/18 01:19:53;;;;;;;;;;;9.00;93.90;;;;;;5111534;28;19935;-71
2023/10/18 01:22:19;;;;;;;;;;;9.00;93.90;;;;;;5111254;28;19939;-71
2023/10/18 01:24:45;;;;;;;;;;;9.00;93.90;;;;;;5110712;28;19990;-71
2023/10/18 01:27:12;;;;;;;;;;;9.00;93.90;;;;;;5109289;28;19937;-71
2023/10/18 01:29:38;;;;;;;;;;;9.00;93.90;;;;;;5109261;28;19911;-71
2023/10/18 01:32:04;;;;;;;;;;;9.00;93.90;;;;;;5110890;28;19911;-71
2023/10/18 01:34:31;;;;;;;;;;;8.90;93.90;;;;;;5117500;27;20002;-71
2023/10/18 01:36:57;;;;;;;;;;;8.90;93.90;;;;;;5116444;27;20325;-71
2023/10/18 01:39:28;;;;;;;;;;;8.90;93.90;;;;;;5109239;28;20292;-71
2023/10/18 01:41:54;;;;;;;;;;;8.90;93.90;;;;;;5113748;27;20249;-71
2023/10/18 01:44:30;;;;;;;;;;;8.90;93.90;;;;;;5114163;27;19998;-71
2023/10/18 01:46:59;;;;;;;;;;;8.90;93.90;;;;;;5103633;28;20406;-71
2023/10/18 01:49:25;;;;;;;;;;;8.90;93.90;;;;;;5110596;28;20062;-71
2023/10/18 01:51:52;;;;;;;;;;;8.90;93.90;;;;;;5110380;28;20018;-71
2023/10/18 01:54:18;;;;;;;;;;;8.90;93.90;;;;;;5108660;28;19969;-71
2023/10/18 01:56:46;;;;;;;;;;;8.90;93.90;;;;;;5109897;28;19915;-71
2023/10/18 01:59:17;;;;;;;;;;;8.80;94.10;;;;;;5108712;28;20379;-71
2023/10/18 02:01:53;;;;;;;;;;;8.80;93.80;;;;;;5110296;28;19960;-71
2023/10/18 02:04:25;;;;;;;;;;;8.80;93.90;;;;;;5118471;27;19954;-71
2023/10/18 02:06:57;;;;;;;;;;;8.80;93.90;;;;;;5103851;28;19919;-71
2023/10/18 02:09:26;;;;;;;;;;;8.80;93.80;;;;;;5108195;28;19918;-71
2023/10/18 02:11:51;;;;;;;;;;;8.80;93.80;;;;;;5109781;28;19911;-71
2023/10/18 02:14:17;;;;;;;;;;;8.80;93.80;;;;;;5117735;27;19922;-71
2023/10/18 02:16:45;;;;;;;;;;;8.80;93.80;;;;;;5109760;27;19912;-71
2023/10/18 02:19:13;;;;;;;;;;;8.80;93.80;;;;;;5109727;28;19909;-71
2023/10/18 02:21:40;;;;;;;;;;;8.80;93.80;;;;;;5107922;28;19915;-71
2023/10/18 02:24:06;;;;;;;;;;;8.80;93.80;;;;;;5107788;28;20368;-71
2023/10/18 02:26:33;;;;;;;;;;;8.70;93.80;;;;;;5108612;28;19915;-71
2023/10/18 02:28:59;;;;;;;;;;;8.80;93.80;;;;;;5109587;28;19915;-71
2023/10/18 02:31:28;;;;;;;;;;;8.70;93.80;;;;;;5109374;28;19960;-71
2023/10/18 02:33:54;;;;;;;;;;;8.70;93.80;;;;;;5111527;27;19965;-71
2023/10/18 02:36:32;;;;;;;;;;;8.70;93.80;;;;;;5109367;28;19919;-71
2023/10/18 02:38:57;;;;;;;;;;;8.70;93.80;;;;;;5108009;28;20424;-71
2023/10/18 02:41:29;;;;;;;;;;;8.70;93.80;;;;;;5109317;28;19914;-71
2023/10/18 02:43:55;;;;;;;;;;;8.70;93.80;;;;;;5108192;28;19916;-71
2023/10/18 02:46:24;;;;;;;;;;;8.70;93.80;;;;;;5109048;28;19912;-71
2023/10/18 02:48:53;;;;;;;;;;;8.70;93.80;;;;;;5108856;28;19935;-71
2023/10/18 02:51:22;;;;;;;;;;;8.60;94.10;;;;;;5109306;28;20663;-71
2023/10/18 02:53:54;;;;;;;;;;;8.60;93.80;;;;;;5100829;28;19911;-71
2023/10/18 02:56:27;;;;;;;;;;;8.60;93.70;;;;;;5107449;28;19912;-71
2023/10/18 02:58:55;;;;;;;;;;;8.60;93.70;;;;;;5101365;28;19958;-71
2023/10/18 03:01:21;;;;;;;;;;;8.60;93.80;;;;;;5109178;28;19908;-71
2023/10/18 03:03:54;;;;;;;;;;;8.60;93.80;;;;;;5109007;28;19911;-71
2023/10/18 03:06:24;;;;;;;;;;;8.60;93.80;;;;;;5108437;28;19912;-71
2023/10/18 03:08:50;;;;;;;;;;;8.60;93.70;;;;;;5101202;28;19934;-71
2023/10/18 03:11:17;;;;;;;;;;;8.60;93.50;;;;;;5116701;28;20351;-71
2023/10/18 03:13:42;;;;;;;;;;;8.60;93.70;;;;;;5112154;27;19944;-71
2023/10/18 03:18:44;;;;;;;;;;;8.60;93.70;;;;;;5108694;28;19972;-71
2023/10/18 03:21:22;;;;;;;;;;;8.50;93.70;;;;;;5107972;28;20210;-71
2023/10/18 03:23:50;;;;;;;;;;;8.50;93.70;;;;;;5101128;28;20490;-71
2023/10/18 03:26:23;;;;;;;;;;;8.60;93.70;;;;;;5108932;28;20331;-71
2023/10/18 03:28:52;;;;;;;;;;;8.50;93.70;;;;;;5101090;28;19923;-71
2023/10/18 03:31:34;;;;;;;;;;;8.50;93.70;;;;;;5107875;28;19934;-71
2023/10/18 03:34:02;;;;;;;;;;;8.50;93.70;;;;;;5102401;28;20345;-71
2023/10/18 03:36:32;;;;;;;;;;;8.50;93.70;;;;;;5108727;28;19919;-71
2023/10/18 03:39:00;;;;;;;;;;;8.50;93.70;;;;;;5109115;28;19943;-71
2023/10/18 03:41:33;;;;;;;;;;;8.50;93.70;;;;;;5109216;28;19915;-71
2023/10/18 03:44:06;;;;;;;;;;;8.50;93.70;;;;;;5109027;28;19907;-71
2023/10/18 03:46:47;;;;;;;;;;;8.50;93.70;;;;;;5117373;27;20351;-71
2023/10/18 03:49:22;;;;;;;;;;;8.50;93.70;;;;;;5119905;27;19912;-71
2023/10/18 03:51:48;;;;;;;;;;;8.50;93.70;;;;;;5108933;27;20390;-71
2023/10/18 03:54:14;;;;;;;;;;;8.50;93.70;;;;;;5108544;28;19983;-71
2023/10/18 03:56:43;;;;;;;;;;;8.50;93.70;;;;;;5117004;28;20356;-71
2023/10/18 03:59:21;;;;;;;;;;;8.40;93.60;;;;;;5108431;28;20578;-71
2023/10/18 04:02:07;;;;;;;;;;;8.40;93.70;;;;;;5110344;28;19919;-71
2023/10/18 04:04:36;;;;;;;;;;;8.50;93.70;;;;;;5111444;28;20361;-71
2023/10/18 04:07:17;;;;;;;;;;;8.50;93.70;;;;;;5113920;27;19911;-71
2023/10/18 04:12:27;;;;;;;;;;;8.50;93.70;;;;;;5120907;27;20003;-71
2023/10/18 04:14:53;;;;;;;;;;;8.40;93.60;;;;;;5118797;27;20010;-71
2023/10/18 04:17:20;;;;;;;;;;;8.40;93.70;;;;;;5112149;28;19918;-71
2023/10/18 04:19:47;;;;;;;;;;;8.40;93.70;;;;;;5112209;28;19919;-71
2023/10/18 04:22:13;;;;;;;;;;;8.40;93.60;;;;;;5110856;28;19915;-71
2023/10/18 04:24:39;;;;;;;;;;;8.40;93.60;;;;;;5111749;27;19965;-71
2023/10/18 04:27:04;;;;;;;;;;;8.40;93.60;;;;;;5111787;27;19916;-71
2023/10/18 04:29:33;;;;;;;;;;;8.40;93.60;;;;;;5110521;27;19932;-71
2023/10/18 04:31:59;;;;;;;;;;;8.40;93.60;;;;;;5120157;27;19911;-71
2023/10/18 04:34:29;;;;;;;;;;;8.40;93.60;;;;;;5109899;28;19941;-71
2023/10/18 04:36:55;;;;;;;;;;;8.40;93.60;;;;;;5119056;27;20321;-71
2023/10/18 04:39:21;;;;;;;;;;;8.40;93.60;;;;;;5110350;28;19908;-71
2023/10/18 04:41:47;;;;;;;;;;;8.40;93.60;;;;;;5110313;28;19961;-71
2023/10/18 04:44:20;;;;;;;;;;;8.40;93.60;;;;;;5111615;28;19919;-71
2023/10/18 04:46:49;;;;;;;;;;;8.40;93.60;;;;;;5110342;28;19915;-71
2023/10/18 04:54:11;;;;;;;;;;;8.40;93.60;;;;;;5111511;28;19915;-71
2023/10/18 04:56:46;;;;;;;;;;;8.40;93.60;;;;;;5111171;28;19915;-71
2023/10/18 05:01:56;;;;;;;;;;;8.30;93.50;;;;;;5111454;28;19968;-71
2023/10/18 05:04:24;;;;;;;;;;;8.40;93.60;;;;;;5110012;28;19954;-71
2023/10/18 05:06:58;;;;;;;;;;;8.40;93.60;;;;;;5104622;28;20010;-71
2023/10/18 05:15:08;;;;;;;;;;;8.30;93.50;;;;;;5103064;28;19918;-71
2023/10/18 05:17:39;;;;;;;;;;;8.30;93.60;;;;;;5110840;28;19908;-71
2023/10/18 05:22:44;;;;;;;;;;;8.30;93.50;;;;;;5110966;28;20518;-71
2023/10/18 05:28:24;;;;;;;;;;;8.30;93.50;;;;;;5113522;27;19978;-71
2023/10/18 05:36:29;;;;;;;;;;;8.30;93.50;;;;;;5104466;28;19916;-71
2023/10/18 05:38:52;;;;;;;;;;;8.30;93.50;;;;;;5106192;27;19918;-71
2023/10/18 05:43:58;;;;;;;;;;;8.30;93.50;;;;;;5111053;28;19918;-71
2023/10/18 05:46:27;;;;;;;;;;;8.30;93.50;;;;;;5110466;28;20008;-71
2023/10/18 05:48:55;;;;;;;;;;;8.30;93.60;;;;;;5109124;28;19912;-71
2023/10/18 05:53:59;;;;;;;;;;;8.30;93.50;;;;;;5102504;28;20392;-71
2023/10/18 05:56:29;;;;;;;;;;;8.30;93.50;;;;;;5110437;28;19920;-71
2023/10/18 06:01:40;;;;;;;;;;;8.30;93.50;;;;;;5109416;28;19914;-71
2023/10/18 06:04:05;;;;;;;;;;;8.30;93.50;;;;;;5116594;27;19927;-71
2023/10/18 06:06:31;;;;;;;;;;;8.30;93.50;;;;;;5108925;28;19908;-71
2023/10/18 06:08:57;;;;;;;;;;;8.30;93.50;;;;;;5108948;28;20364;-71
2023/10/18 06:11:23;;;;;;;;;;;8.30;93.50;;;;;;5107811;28;19918;-71
2023/10/18 06:13:49;;;;;;;;;;;8.30;93.50;;;;;;5109716;28;19908;-71
2023/10/18 06:16:20;;;;;;;;;;;8.30;93.50;;;;;;5109804;28;19980;-71
2023/10/18 06:18:49;;;;;;;;;;;8.30;93.50;;;;;;5110089;28;20263;-71
2023/10/18 06:21:20;;;;;;;;;;;8.30;93.50;;;;;;5110052;28;20574;-71
2023/10/18 06:23:55;;;;;;;;;;;8.30;93.50;;;;;;5113955;27;19908;-71
2023/10/18 06:26:33;;;;;;;;;;;8.30;93.50;;;;;;5109681;28;19914;-71
2023/10/18 06:29:02;;;;;;;;;;;8.30;93.50;;;;;;5102614;28;19916;-71
2023/10/18 06:31:28;;;;;;;;;;;8.30;93.50;;;;;;5110096;28;19982;-71
2023/10/18 06:33:57;;;;;;;;;;;8.30;93.50;;;;;;5107630;28;19931;-71
2023/10/18 06:36:24;;;;;;;;;;;8.30;93.50;;;;;;5109730;28;19929;-71
2023/10/18 06:38:53;;;;;;;;;;;8.30;93.50;;;;;;5108267;28;19961;-71
2023/10/18 06:41:18;;;;;;;;;;;8.30;93.50;;;;;;5108482;28;19916;-71
2023/10/18 06:43:49;;;;;;;;;;;8.30;93.50;;;;;;5109574;28;20127;-71
2023/10/18 06:46:26;;;;;;;;;;;8.30;93.50;;;;;;5108208;28;19953;-71
2023/10/18 06:48:58;;;;;;;;;;;8.30;93.80;;;;;;5101842;28;19919;-71
2023/10/18 06:51:40;;;;;;;;;;;8.30;93.50;;;;;;5108304;28;20454;-71
2023/10/18 06:54:06;;;;;;;;;;;8.30;93.50;;;;;;5103364;28;19926;-71
2023/10/18 06:56:32;;;;;;;;;;;8.30;93.50;;;;;;5109582;28;20020;-71
2023/10/18 06:59:07;;;;;;;;;;;8.30;93.50;;;;;;5109658;28;19991;-71
2023/10/18 07:01:41;;;;;;;;;;;8.30;93.50;;;;;;5110826;28;19908;-71
2023/10/18 07:04:18;;;;;;;;;;;8.30;93.50;;;;;;5119246;27;19986;-71
2023/10/18 07:06:44;;;;;;;;;;;8.30;93.40;;;;;;5110439;27;20407;-71
2023/10/18 07:09:24;;;;;;;;;;;8.30;93.50;;;;;;5108116;28;19994;-71
2023/10/18 07:11:57;;;;;;;;;;;8.30;93.50;;;;;;5107763;28;20383;-71
2023/10/18 07:14:26;;;;;;;;;;;8.40;93.40;;;;;;5109097;28;20000;-71
2023/10/18 07:16:54;;;;;;;;;;;8.40;93.50;;;;;;5140666;27;20272;-71
2023/10/18 07:19:47;;;;;;;;;;;8.40;93.40;;;;;;5109624;28;20327;-71
2023/10/18 07:22:19;;;;;;;;;;;8.40;93.40;;;;;;5109676;28;19908;-71
2023/10/18 07:24:53;;;;;;;;;;;8.40;93.40;;;;;;5109089;28;20230;-71
2023/10/18 07:27:19;;;;;;;;;;;8.40;93.40;;;;;;5109187;28;19989;-71
2023/10/18 07:29:49;;;;;;;;;;;8.40;93.50;;;;;;5109204;28;19958;-71
2023/10/18 07:32:20;;;;;;;;;;;8.40;93.40;;;;;;5109286;28;20305;-71
2023/10/18 07:34:47;;;;;;;;;;;8.50;93.50;;;;;;5111492;28;19923;-71
2023/10/18 07:37:24;;;;;;;;;;;8.50;93.50;;;;;;5112075;28;19908;-71
2023/10/18 07:39:56;;;;;;;;;;;8.50;93.40;;;;;;5113204;28;20609;-71
2023/10/18 07:42:22;;;;;;;;;;;8.50;93.40;;;;;;5113588;28;19953;-71
2023/10/18 07:44:53;;;;;;;;;;;8.50;93.40;;;;;;5112812;28;19912;-71
2023/10/18 07:47:25;;;;;;;;;;;8.50;93.40;;;;;;5113011;27;19943;-71
2023/10/18 07:49:51;;;;;;;;;;;8.60;93.40;;;;;;5112941;28;19965;-71
2023/10/18 07:52:16;;;;;;;;;;;8.60;93.70;;;;;;5113280;28;19981;-71
2023/10/18 07:54:42;;;;;;;;;;;8.60;93.40;;;;;;5112814;27;20365;-71
2023/10/18 07:57:33;;;;;;;;;;;8.60;93.40;;;;;;5113450;28;19915;-71
2023/10/18 08:00:21;;;;;;;;;;;8.70;93.40;;;;;;5112937;28;19915;-71
2023/10/18 08:02:43;;;;;;;;;;;8.70;93.40;;;;;;5112810;28;19908;-71
2023/10/18 08:05:08;;;;;;;;;;;8.70;93.30;;;;;;5108520;27;19908;-71
2023/10/18 08:07:36;;;;;;;;;;;8.70;93.30;;;;;;5110474;28;20406;-71
2023/10/18 08:10:07;;;;;;;;;;;8.70;93.30;;;;;;5113027;28;19907;-71
2023/10/18 08:12:33;;;;;;;;;;;8.70;93.30;;;;;;5112896;28;20334;-71
2023/10/18 08:14:59;;;;;;;;;;;8.80;93.30;;;;;;5112746;28;19965;-71
2023/10/18 08:17:44;;;;;;;;;;;8.80;93.30;;;;;;5112751;28;19953;-71
2023/10/18 08:22:47;;;;;;;;;;;8.80;93.30;;;;;;5117566;27;19915;-71
2023/10/18 08:25:22;;;;;;;;;;;8.80;93.50;;;;;;5112776;28;19911;-71
2023/10/18 08:27:51;;;;;;;;;;;8.90;93.50;;;;;;5120996;27;19989;-71
2023/10/18 08:33:08;;;;;;;;;;;8.90;93.40;;;;;;5075595;28;19916;-71
2023/10/18 08:35:36;;;;;;;;;;;8.90;93.50;;;;;;5112536;28;20104;-71
2023/10/18 08:38:01;;;;;;;;;;;8.90;93.50;;;;;;5112750;28;19912;-71
2023/10/18 08:40:28;;;;;;;;;;;9.00;93.50;;;;;;5111326;28;19988;-71
2023/10/18 08:43:05;;;;;;;;;;;8.90;93.50;;;;;;5110987;28;20003;-71
2023/10/18 08:45:36;;;;;;;;;;;9.00;93.60;;;;;;5112288;27;19969;-71
2023/10/18 08:48:09;;;;;;;;;;;9.00;93.50;;;;;;5119819;27;19914;-71
2023/10/18 08:50:37;;;;;;;;;;;9.10;93.50;;;;;;5114760;27;19923;-70
2023/10/18 08:53:03;;;;;;;;;;;9.10;93.50;;;;;;5112118;27;19947;-70
2023/10/18 08:55:44;;;;;;;;;;;9.10;93.50;;;;;;5110793;28;19961;-70
2023/10/18 08:58:19;;;;;;;;;;;9.10;93.50;;;;;;5112208;28;19914;-70
2023/10/18 09:03:27;;;;;;;;;;;9.20;93.50;;;;;;5120481;27;20613;-70
2023/10/18 09:06:03;;;;;;;;;;;9.20;93.40;;;;;;5096557;28;20570;-70
2023/10/18 09:08:28;;;;;;;;;;;9.30;93.40;;;;;;5111591;28;19923;-70
2023/10/18 09:10:54;;;;;;;;;;;9.40;93.40;;;;;;5112146;28;19924;-70
2023/10/18 09:15:54;;;;;;;;;;;9.40;93.40;;;;;;5111887;28;19973;-70
2023/10/18 09:18:24;;;;;;;;;;;9.50;93.40;;;;;;5113464;27;19912;-70
2023/10/18 09:20:51;;;;;;;;;;;9.50;93.40;;;;;;5112432;27;19912;-70
2023/10/18 09:23:25;;;;;;;;;;;9.50;93.40;;;;;;5111783;28;19983;-70
2023/10/18 09:26:00;;;;;;;;;;;9.50;93.40;;;;;;5111976;28;19944;-70
2023/10/18 09:28:25;;;;;;;;;;;;;;;;;;;;;
2023/10/18 09:31:00;;;;;;;;;;;9.60;93.30;;;;;;5111666;27;19908;-70
2023/10/18 09:33:32;;;;;;;;;;;9.70;93.30;;;;;;5111757;28;19959;-70
2023/10/18 09:36:05;;;;;;;;;;;9.70;93.30;;;;;;5117732;27;20353;-70
2023/10/18 09:38:41;;;;;;;;;;;9.70;93.30;;;;;;5111674;28;19984;-70
2023/10/18 09:41:07;;;;;;;;;;;9.80;93.30;;;;;;5110581;28;19908;-70
2023/10/18 09:43:33;;;;;;;;;;;9.80;93.30;;;;;;5109602;28;20428;-70
2023/10/18 09:45:59;;;;;;;;;;;9.80;93.30;;;;;;5110676;28;19958;-70
2023/10/18 09:48:26;;;;;;;;;;;9.80;93.30;;;;;;5109678;28;20235;-70
2023/10/18 09:51:01;;;;;;;;;;;9.80;93.30;;;;;;5112655;27;19911;-70
2023/10/18 09:53:30;;;;;;;;;;;9.90;93.30;;;;;;5113890;27;19912;-70
2023/10/18 09:55:56;;;;;;;;;;;9.90;93.30;;;;;;5101726;28;19998;-70
2023/10/18 09:58:24;;;;;;;;;;;9.90;93.30;;;;;;5110084;28;20006;-70
2023/10/18 10:00:56;;;;;;;;;;;10.00;93.30;;;;;;5111311;28;20246;-70
2023/10/18 10:03:25;;;;;;;;;;;10.00;93.20;;;;;;5119025;27;19911;-70
2023/10/18 10:05:52;;;;;;;;;;;10.10;93.30;;;;;;5102590;28;19912;-70
2023/10/18 10:08:23;;;;;;;;;;;10.10;93.30;;;;;;5111359;28;19998;-70
2023/10/18 10:10:49;;;;;;;;;;;10.10;93.30;;;;;;5109611;28;20012;-70
2023/10/18 10:13:28;;;;;;;;;;;10.10;93.30;;;;;;5111143;28;19915;-70
2023/10/18 10:16:03;;;;;;;;;;;10.10;93.30;;;;;;5109115;28;19916;-70
2023/10/18 10:18:30;;;;;;;;;;;10.20;93.30;;;;;;5115214;27;19933;-70
2023/10/18 10:20:57;;;;;;;;;;;10.20;93.30;;;;;;5101810;28;19914;-70
2023/10/18 10:23:22;;;;;;;;;;;10.30;93.30;;;;;;5109937;28;19912;-70
2023/10/18 10:26:13;;;;;;;;;;;10.30;93.30;;;;;;5110926;28;21369;-70
2023/10/18 10:29:09;;;;;;;;;;;10.30;93.30;;;;;;5111115;28;20337;-70
2023/10/18 10:31:46;;;;;;;;;;;10.40;93.20;;;;;;5110998;28;19908;-70
2023/10/18 10:34:15;;;;;;;;;;;10.50;93.20;;;;;;5103570;28;19995;-70
2023/10/18 10:36:44;;;;;;;;;;;10.50;93.10;;;;;;5110603;28;19962;-70
2023/10/18 10:39:21;;;;;;;;;;;10.60;93.10;;;;;;5110884;28;20362;-70
2023/10/18 10:41:48;;;;;;;;;;;10.70;93.00;;;;;;5110686;28;20448;-70
2023/10/18 10:44:23;;;;;;;;;;;10.70;92.90;;;;;;5109140;28;19954;-70
2023/10/18 10:46:50;;;;;;;;;;;10.80;92.90;;;;;;5110141;28;20019;-70
2023/10/18 10:49:41;;;;;;;;;;;10.90;93.00;;;;;;5113370;27;20003;-70
2023/10/18 10:52:08;;;;;;;;;;;10.90;92.80;;;;;;5119143;28;19914;-70
2023/10/18 10:54:37;;;;;;;;;;;11.00;92.80;;;;;;5109069;28;20373;-70
2023/10/18 10:57:08;;;;;;;;;;;11.00;92.80;;;;;;5109548;28;19919;-70
2023/10/18 10:59:41;;;;;;;;;;;11.10;92.70;;;;;;5109293;28;19908;-70
2023/10/18 11:02:07;;;;;;;;;;;11.20;92.70;;;;;;5109319;28;19908;-70
2023/10/18 11:04:46;;;;;;;;;;;11.20;92.60;;;;;;5110397;28;19964;-70
2023/10/18 11:07:21;;;;;;;;;;;11.30;92.60;;;;;;5110735;28;20034;-70
2023/10/18 11:09:47;;;;;;;;;;;11.40;92.60;;;;;;5112650;28;20324;-70
2023/10/18 11:12:13;;;;;;;;;;;11.50;92.50;;;;;;5114599;28;20388;-70
2023/10/18 11:14:42;;;;;;;;;;;11.50;92.40;;;;;;5114333;27;20351;-70
2023/10/18 11:19:43;;;;;;;;;;;11.60;92.40;;;;;;5118531;27;20309;-70
2023/10/18 11:22:11;;;;;;;;;;;11.70;92.30;;;;;;5114326;28;19908;-70
2023/10/18 11:24:39;;;;;;;;;;;11.80;92.20;;;;;;5114510;28;19981;-70
2023/10/18 11:27:08;;;;;;;;;;;11.80;92.20;;;;;;5113061;28;19974;-70
2023/10/18 11:29:34;;;;;;;;;;;11.90;92.10;;;;;;5114831;27;20236;-70
2023/10/18 11:32:00;;;;;;;;;;;11.90;92.20;;;;;;5122064;27;19919;-70
2023/10/18 11:34:25;;;;;;;;;;;12.00;92.10;;;;;;5114012;28;19908;-70
2023/10/18 11:36:52;;;;;;;;;;;12.00;92.10;;;;;;5112330;28;20364;-70
2023/10/18 11:39:18;;;;;;;;;;;12.10;92.10;;;;;;5114117;28;20072;-70
2023/10/18 11:41:53;;;;;;;;;;;12.10;92.10;;;;;;5113881;28;19915;-70
2023/10/18 11:44:31;;;;;;;;;;;12.10;92.00;;;;;;5112584;28;20498;-70
2023/10/18 11:47:11;;;;;;;;;;;12.20;92.00;;;;;;5113994;28;19908;-70
2023/10/18 11:49:41;;;;;;;;;;;12.20;92.30;;;;;;5116244;27;19980;-70
2023/10/18 11:52:16;;;;;;;;;;;12.30;92.40;;;;;;5113468;27;19915;-70
2023/10/18 11:54:43;;;;;;;;;;;12.30;92.20;;;;;;5112290;27;20040;-70
2023/10/18 11:57:25;;;;;;;;;;;12.40;92.10;;;;;;5119514;27;20256;-70
2023/10/18 11:59:52;;;;;;;;;;;12.40;92.10;;;;;;5113386;28;19915;-70
2023/10/18 12:02:17;;;;;;;;;;;12.50;92.20;;;;;;5113183;28;19911;-70
2023/10/18 12:04:45;;;;;;;;;;;12.50;92.20;;;;;;5108305;28;19980;-70
2023/10/18 12:07:13;;;;;;;;;;;12.50;92.30;;;;;;5107150;28;19954;-70
2023/10/18 12:09:51;;;;;;;;;;;12.50;92.10;;;;;;5113395;28;19907;-70
2023/10/18 12:12:20;;;;;;;;;;;12.50;92.30;;;;;;5108849;27;19980;-70
2023/10/18 12:14:48;;;;;;;;;;;12.60;92.20;;;;;;5113955;27;19920;-70
2023/10/18 12:17:14;;;;;;;;;;;12.60;92.20;;;;;;5118649;27;19960;-70
2023/10/18 12:19:40;;;;;;;;;;;12.50;92.20;;;;;;5112891;28;19908;-70
2023/10/18 12:22:09;;;;;;;;;;;12.60;92.20;;;;;;5111593;28;19991;-70
2023/10/18 12:24:35;;;;;;;;;;;12.60;92.10;;;;;;5113505;27;19915;-70
2023/10/18 12:27:16;;;;;;;;;;;12.70;92.20;;;;;;5120494;27;19919;-70
2023/10/18 12:29:44;;;;;;;;;;;12.60;92.20;;;;;;5112531;28;20281;-70
2023/10/18 12:35:07;;;;;;;;;;;12.70;92.20;;;;;;5080446;28;19912;-70
2023/10/18 12:37:33;;;;;;;;;;;12.70;92.20;;;;;;5112116;28;19916;-70
2023/10/18 12:40:00;;;;;;;;;;;12.70;92.30;;;;;;5112686;28;20343;-70
2023/10/18 12:42:32;;;;;;;;;;;12.70;92.30;;;;;;5105941;28;20053;-70
2023/10/18 12:45:07;;;;;;;;;;;12.70;92.30;;;;;;5112399;28;19962;-70
2023/10/18 12:47:34;;;;;;;;;;;12.80;92.30;;;;;;5112449;27;20002;-70
2023/10/18 12:50:03;;;;;;;;;;;12.80;92.30;;;;;;5112259;28;20057;-70
2023/10/18 12:57:49;;;;;;;;;;;12.80;92.30;;;;;;5110894;28;19915;-70
2023/10/18 13:00:16;;;;;;;;;;;12.80;92.30;;;;;;5112388;28;19942;-70
2023/10/18 13:05:23;;;;;;;;;;;12.80;92.40;;;;;;5105889;27;19919;-70
2023/10/18 13:07:54;;;;;;;;;;;12.90;92.30;;;;;;5110797;27;20291;-70
2023/10/18 13:10:29;;;;;;;;;;;12.90;92.30;;;;;;5112032;28;19919;-70
2023/10/18 13:12:55;;;;;;;;;;;12.90;92.30;;;;;;5112369;28;19915;-70
2023/10/18 13:15:23;;;;;;;;;;;12.90;92.20;;;;;;5112161;28;20321;-70
2023/10/18 13:17:49;;;;;;;;;;;13.00;92.30;;;;;;5110579;28;19907;-70
2023/10/18 13:20:15;;;;;;;;;;;13.00;92.30;;;;;;5112263;28;20491;-70
2023/10/18 13:22:42;;;;;;;;;;;13.00;92.30;;;;;;5112075;28;19958;-70
2023/10/18 13:25:08;;;;;;;;;;;13.00;92.20;;;;;;5112175;28;19914;-70
2023/10/18 13:27:37;;;;;;;;;;;13.10;92.30;;;;;;5111651;28;19960;-70
2023/10/18 13:30:31;;;;;;;;;;;13.10;92.20;;;;;;5111755;28;19918;-70
2023/10/18 13:32:50;;;;;;;;;;;13.10;92.20;;;;;;5099217;28;20281;-70
2023/10/18 13:35:15;;;;;;;;;;;13.20;92.20;;;;;;5109752;28;19920;-70
2023/10/18 13:37:44;;;;;;;;;;;13.20;92.10;;;;;;5110155;28;20017;-70
2023/10/18 13:40:18;;;;;;;;;;;13.20;92.20;;;;;;5102972;28;19912;-70
2023/10/18 13:42:46;;;;;;;;;;;13.20;92.10;;;;;;5110267;28;20220;-70
2023/10/18 13:45:14;;;;;;;;;;;13.20;91.80;;;;;;5111329;28;19908;-70
2023/10/18 13:47:39;;;;;;;;;;;13.20;92.10;;;;;;5111325;28;19911;-70
2023/10/18 13:50:09;;;;;;;;;;;13.20;92.10;;;;;;5115312;27;20387;-70
2023/10/18 13:52:38;;;;;;;;;;;13.30;92.10;;;;;;5110320;28;19938;-70
2023/10/18 13:55:04;;;;;;;;;;;13.30;92.20;;;;;;5118250;27;19912;-70
2023/10/18 13:57:30;;;;;;;;;;;13.30;92.00;;;;;;5110731;28;19919;-70
2023/10/18 13:59:59;;;;;;;;;;;13.40;91.90;;;;;;5118447;27;19911;-70
2023/10/18 14:02:26;;;;;;;;;;;13.40;92.00;;;;;;5109671;28;19916;-70
2023/10/18 14:04:52;;;;;;;;;;;13.40;91.80;;;;;;5106384;28;19923;-70
2023/10/18 14:07:18;;;;;;;;;;;13.40;92.00;;;;;;5104687;28;19911;-70
2023/10/18 14:09:44;;;;;;;;;;;13.40;92.00;;;;;;5110881;27;20010;-70
2023/10/18 14:12:10;;;;;;;;;;;13.50;91.90;;;;;;5116380;27;20002;-70
2023/10/18 14:14:36;;;;;;;;;;;13.50;92.10;;;;;;5105140;27;19912;-70
2023/10/18 14:17:03;;;;;;;;;;;13.50;92.00;;;;;;5113102;27;19912;-70
2023/10/18 14:19:29;;;;;;;;;;;13.50;91.90;;;;;;5107448;27;19947;-70
2023/10/18 14:21:55;;;;;;;;;;;13.50;91.90;;;;;;5110467;28;19916;-70
2023/10/18 14:24:25;;;;;;;;;;;13.50;91.80;;;;;;5117738;27;19959;-70
2023/10/18 14:26:50;;;;;;;;;;;13.50;91.50;;;;;;5102691;27;19920;-70
2023/10/18 14:29:16;;;;;;;;;;;13.50;92.00;;;;;;5110488;28;20363;-70
2023/10/18 14:31:42;;;;;;;;;;;13.60;92.00;;;;;;5110220;28;20390;-70
2023/10/18 14:34:07;;;;;;;;;;;13.50;92.00;;;;;;5110543;28;19912;-70
2023/10/18 14:36:33;;;;;;;;;;;13.50;91.90;;;;;;5110254;28;20245;-70
2023/10/18 14:38:58;;;;;;;;;;;13.60;92.00;;;;;;5102258;28;19908;-70
2023/10/18 14:41:24;;;;;;;;;;;13.60;92.10;;;;;;5110228;28;19908;-70
2023/10/18 14:43:56;;;;;;;;;;;13.60;92.00;;;;;;5109782;28;19908;-70
2023/10/18 14:46:23;;;;;;;;;;;13.60;92.10;;;;;;5108765;28;19908;-70
2023/10/18 14:48:51;;;;;;;;;;;13.60;92.10;;;;;;5110375;28;20054;-70
2023/10/18 14:51:21;;;;;;;;;;;13.60;92.10;;;;;;5116474;28;19911;-70
2023/10/18 14:53:48;;;;;;;;;;;13.60;92.10;;;;;;5120158;27;19922;-70
2023/10/18 14:56:14;;;;;;;;;;;13.50;91.80;;;;;;5115913;27;19911;-70
2023/10/18 14:58:41;;;;;;;;;;;13.50;92.10;;;;;;5112448;27;20240;-70
2023/10/18 15:01:12;;;;;;;;;;;13.60;92.10;;;;;;5110347;28;19918;-70
2023/10/18 15:03:38;;;;;;;;;;;13.50;92.10;;;;;;5101647;28;19915;-70
2023/10/18 15:06:04;;;;;;;;;;;13.50;92.10;;;;;;5114313;28;19914;-70
2023/10/18 15:08:31;;;;;;;;;;;13.60;92.20;;;;;;5146629;27;19957;-70
2023/10/18 15:10:57;;;;;;;;;;;13.50;92.20;;;;;;5112992;28;19914;-70
2023/10/18 15:13:23;;;;;;;;;;;13.50;92.20;;;;;;5114629;27;19908;-70
2023/10/18 15:15:49;;;;;;;;;;;13.50;92.20;;;;;;5100685;28;20348;-70
2023/10/18 15:18:15;;;;;;;;;;;13.50;92.30;;;;;;5109650;28;19912;-70
2023/10/18 15:20:41;;;;;;;;;;;13.40;92.20;;;;;;5118271;27;19908;-70
2023/10/18 15:23:08;;;;;;;;;;;13.50;92.30;;;;;;5108595;28;19912;-70
2023/10/18 15:25:33;;;;;;;;;;;13.40;92.40;;;;;;5109884;28;20199;-70
2023/10/18 15:27:59;;;;;;;;;;;13.40;92.40;;;;;;5101566;28;19938;-70
2023/10/18 15:30:25;;;;;;;;;;;13.40;92.50;;;;;;5109755;28;19912;-70
2023/10/18 15:32:51;;;;;;;;;;;13.30;92.50;;;;;;5109411;28;20264;-70
2023/10/18 15:35:17;;;;;;;;;;;13.30;92.60;;;;;;5109613;28;19912;-70
2023/10/18 15:37:43;;;;;;;;;;;13.30;92.60;;;;;;5108814;28;20368;-70
2023/10/18 15:40:15;;;;;;;;;;;13.30;92.90;;;;;;5109198;28;20305;-70